sensor_id;sensor_type;location;lat;lon;timestamp;P1;durP1;ratioP1;P2;durP2;ratioP2
35644;SDS011;21764;52.042;6.830;2023-04-01T00:03:07;7.65;;;2.58;;
35644;SDS011;21764;52.042;6.830;2023-04-01T00:08:08;12.43;;;2.88;;
35644;SDS011;21764;52.042;6.830;2023-04-01T00:13:08;8.35;;;3.33;;
35644;SDS011;21764;52.042;6.830;2023-04-01T00:18:09;8.95;;;2.85;;
35644;SDS011;21764;52.042;6.830;2023-04-01T00:23:10;7.13;;;3.05;;
35644;SDS011;21764;52.042;6.830;2023-04-01T00:28:11;8.23;;;3.03;;
35644;SDS011;21764;52.042;6.830;2023-04-01T00:33:11;9.35;;;3.47;;
35644;SDS011;21764;52.042;6.830;2023-04-01T00:38:12;10.98;;;3.80;;
35644;SDS011;21764;52.042;6.830;2023-04-01T00:43:14;10.23;;;3.63;;
35644;SDS011;21764;52.042;6.830;2023-04-01T00:48:20;12.25;;;4.47;;
35644;SDS011;21764;52.042;6.830;2023-04-01T00:53:25;11.00;;;3.70;;
35644;SDS011;21764;52.042;6.830;2023-04-01T00:58:29;9.80;;;4.75;;
35644;SDS011;21764;52.042;6.830;2023-04-01T01:03:33;11.63;;;3.65;;
35644;SDS011;21764;52.042;6.830;2023-04-01T01:08:39;14.32;;;5.03;;
35644;SDS011;21764;52.042;6.830;2023-04-01T01:25:06;9.35;;;3.80;;
35644;SDS011;21764;52.042;6.830;2023-04-01T01:40:39;9.45;;;2.55;;
35644;SDS011;21764;52.042;6.830;2023-04-01T01:45:45;5.03;;;2.80;;
35644;SDS011;21764;52.042;6.830;2023-04-01T01:50:49;7.60;;;3.47;;
35644;SDS011;21764;52.042;6.830;2023-04-01T01:55:50;6.95;;;2.30;;
35644;SDS011;21764;52.042;6.830;2023-04-01T02:01:02;4.40;;;2.90;;
35644;SDS011;21764;52.042;6.830;2023-04-01T02:06:06;7.85;;;2.70;;
35644;SDS011;21764;52.042;6.830;2023-04-01T02:16:14;8.10;;;3.10;;
35644;SDS011;21764;52.042;6.830;2023-04-01T02:21:21;7.47;;;3.20;;
35644;SDS011;21764;52.042;6.830;2023-04-01T02:26:25;5.00;;;3.25;;
35644;SDS011;21764;52.042;6.830;2023-04-01T02:31:27;5.82;;;3.97;;
35644;SDS011;21764;52.042;6.830;2023-04-01T02:36:28;6.60;;;3.80;;
35644;SDS011;21764;52.042;6.830;2023-04-01T02:41:28;7.78;;;4.07;;
35644;SDS011;21764;52.042;6.830;2023-04-01T02:46:29;8.35;;;4.60;;
35644;SDS011;21764;52.042;6.830;2023-04-01T02:51:30;7.78;;;4.82;;
35644;SDS011;21764;52.042;6.830;2023-04-01T02:56:32;8.02;;;4.90;;
35644;SDS011;21764;52.042;6.830;2023-04-01T03:01:32;10.63;;;5.20;;
35644;SDS011;21764;52.042;6.830;2023-04-01T03:06:33;8.15;;;5.57;;
35644;SDS011;21764;52.042;6.830;2023-04-01T03:11:34;7.47;;;5.07;;
35644;SDS011;21764;52.042;6.830;2023-04-01T03:16:35;10.90;;;5.82;;
35644;SDS011;21764;52.042;6.830;2023-04-01T03:21:36;12.13;;;6.20;;
35644;SDS011;21764;52.042;6.830;2023-04-01T03:26:37;11.90;;;6.63;;
35644;SDS011;21764;52.042;6.830;2023-04-01T03:31:37;10.43;;;6.47;;
35644;SDS011;21764;52.042;6.830;2023-04-01T03:36:38;10.65;;;7.07;;
35644;SDS011;21764;52.042;6.830;2023-04-01T03:41:39;8.93;;;7.10;;
35644;SDS011;21764;52.042;6.830;2023-04-01T03:46:39;10.55;;;6.78;;
35644;SDS011;21764;52.042;6.830;2023-04-01T03:51:41;10.45;;;6.72;;
35644;SDS011;21764;52.042;6.830;2023-04-01T03:56:42;9.40;;;7.28;;
35644;SDS011;21764;52.042;6.830;2023-04-01T04:01:43;8.88;;;7.00;;
35644;SDS011;21764;52.042;6.830;2023-04-01T04:06:46;10.43;;;8.05;;
35644;SDS011;21764;52.042;6.830;2023-04-01T04:11:46;10.88;;;7.68;;
35644;SDS011;21764;52.042;6.830;2023-04-01T04:16:47;14.15;;;7.80;;
35644;SDS011;21764;52.042;6.830;2023-04-01T04:21:48;12.35;;;7.65;;
35644;SDS011;21764;52.042;6.830;2023-04-01T04:26:49;11.18;;;8.07;;
35644;SDS011;21764;52.042;6.830;2023-04-01T04:31:50;11.60;;;8.93;;
35644;SDS011;21764;52.042;6.830;2023-04-01T04:36:50;13.43;;;8.77;;
35644;SDS011;21764;52.042;6.830;2023-04-01T04:41:51;11.57;;;8.57;;
35644;SDS011;21764;52.042;6.830;2023-04-01T04:46:52;12.90;;;8.52;;
35644;SDS011;21764;52.042;6.830;2023-04-01T04:51:52;12.93;;;7.95;;
35644;SDS011;21764;52.042;6.830;2023-04-01T04:56:53;13.35;;;7.90;;
35644;SDS011;21764;52.042;6.830;2023-04-01T05:01:54;11.20;;;8.13;;
35644;SDS011;21764;52.042;6.830;2023-04-01T05:06:55;12.10;;;8.10;;
35644;SDS011;21764;52.042;6.830;2023-04-01T05:11:55;12.95;;;8.13;;
35644;SDS011;21764;52.042;6.830;2023-04-01T05:16:56;12.23;;;8.50;;
35644;SDS011;21764;52.042;6.830;2023-04-01T05:21:57;14.90;;;8.63;;
35644;SDS011;21764;52.042;6.830;2023-04-01T05:26:57;13.18;;;8.23;;
35644;SDS011;21764;52.042;6.830;2023-04-01T05:31:58;14.07;;;8.75;;
35644;SDS011;21764;52.042;6.830;2023-04-01T05:36:59;13.55;;;9.05;;
35644;SDS011;21764;52.042;6.830;2023-04-01T05:41:59;26.23;;;11.00;;
35644;SDS011;21764;52.042;6.830;2023-04-01T05:47:00;18.80;;;13.43;;
35644;SDS011;21764;52.042;6.830;2023-04-01T05:52:01;16.02;;;11.25;;
35644;SDS011;21764;52.042;6.830;2023-04-01T05:57:02;15.80;;;10.60;;
35644;SDS011;21764;52.042;6.830;2023-04-01T06:02:03;14.30;;;10.23;;
35644;SDS011;21764;52.042;6.830;2023-04-01T06:07:14;17.58;;;12.73;;
35644;SDS011;21764;52.042;6.830;2023-04-01T06:12:29;15.95;;;10.63;;
35644;SDS011;21764;52.042;6.830;2023-04-01T06:28:29;15.68;;;9.77;;
35644;SDS011;21764;52.042;6.830;2023-04-01T06:34:01;15.15;;;9.10;;
35644;SDS011;21764;52.042;6.830;2023-04-01T06:50:21;14.27;;;8.98;;
35644;SDS011;21764;52.042;6.830;2023-04-01T07:00:53;13.90;;;8.98;;
35644;SDS011;21764;52.042;6.830;2023-04-01T07:05:57;12.07;;;7.32;;
35644;SDS011;21764;52.042;6.830;2023-04-01T07:11:14;8.52;;;6.95;;
35644;SDS011;21764;52.042;6.830;2023-04-01T07:16:45;8.45;;;6.68;;
35644;SDS011;21764;52.042;6.830;2023-04-01T07:22:00;8.18;;;5.72;;
35644;SDS011;21764;52.042;6.830;2023-04-01T07:27:08;8.80;;;6.47;;
35644;SDS011;21764;52.042;6.830;2023-04-01T07:37:45;9.68;;;6.90;;
35644;SDS011;21764;52.042;6.830;2023-04-01T07:48:26;9.48;;;6.20;;
35644;SDS011;21764;52.042;6.830;2023-04-01T07:53:37;7.25;;;4.93;;
35644;SDS011;21764;52.042;6.830;2023-04-01T07:58:58;6.43;;;5.05;;
35644;SDS011;21764;52.042;6.830;2023-04-01T08:04:23;5.00;;;3.80;;
35644;SDS011;21764;52.042;6.830;2023-04-01T08:14:52;4.80;;;4.03;;
35644;SDS011;21764;52.042;6.830;2023-04-01T08:20:23;5.18;;;4.38;;
35644;SDS011;21764;52.042;6.830;2023-04-01T08:25:27;7.47;;;4.30;;
35644;SDS011;21764;52.042;6.830;2023-04-01T08:30:35;5.25;;;4.32;;
35644;SDS011;21764;52.042;6.830;2023-04-01T08:35:44;5.97;;;4.70;;
35644;SDS011;21764;52.042;6.830;2023-04-01T08:41:15;7.00;;;4.82;;
35644;SDS011;21764;52.042;6.830;2023-04-01T08:56:40;9.70;;;6.38;;
35644;SDS011;21764;52.042;6.830;2023-04-01T09:18:05;10.80;;;7.32;;
35644;SDS011;21764;52.042;6.830;2023-04-01T09:34:34;10.85;;;8.43;;
35644;SDS011;21764;52.042;6.830;2023-04-01T09:50:47;7.53;;;5.60;;
35644;SDS011;21764;52.042;6.830;2023-04-01T10:33:54;43.97;;;21.45;;
35644;SDS011;21764;52.042;6.830;2023-04-01T10:54:49;5.50;;;4.22;;
35644;SDS011;21764;52.042;6.830;2023-04-01T11:00:18;8.13;;;4.90;;
35644;SDS011;21764;52.042;6.830;2023-04-01T11:27:21;4.45;;;3.95;;
35644;SDS011;21764;52.042;6.830;2023-04-01T11:38:03;8.32;;;5.10;;
35644;SDS011;21764;52.042;6.830;2023-04-01T12:10:17;4.15;;;3.50;;
35644;SDS011;21764;52.042;6.830;2023-04-01T12:15:24;5.47;;;4.97;;
35644;SDS011;21764;52.042;6.830;2023-04-01T12:31:58;2.92;;;2.40;;
35644;SDS011;21764;52.042;6.830;2023-04-01T12:37:26;3.33;;;3.03;;
35644;SDS011;21764;52.042;6.830;2023-04-01T12:58:23;3.33;;;2.90;;
35644;SDS011;21764;52.042;6.830;2023-04-01T13:25:13;9.63;;;8.63;;
35644;SDS011;21764;52.042;6.830;2023-04-01T13:30:44;9.57;;;6.03;;
35644;SDS011;21764;52.042;6.830;2023-04-01T14:41:29;6.93;;;4.75;;
35644;SDS011;21764;52.042;6.830;2023-04-01T14:51:38;4.20;;;3.80;;
35644;SDS011;21764;52.042;6.830;2023-04-01T14:56:44;4.28;;;3.88;;
35644;SDS011;21764;52.042;6.830;2023-04-01T15:02:00;4.82;;;3.70;;
35644;SDS011;21764;52.042;6.830;2023-04-01T15:12:30;5.10;;;4.55;;
35644;SDS011;21764;52.042;6.830;2023-04-01T15:23:17;6.25;;;5.20;;
35644;SDS011;21764;52.042;6.830;2023-04-01T15:28:32;6.63;;;5.88;;
35644;SDS011;21764;52.042;6.830;2023-04-01T15:38:50;6.40;;;5.22;;
35644;SDS011;21764;52.042;6.830;2023-04-01T15:43:55;6.05;;;5.40;;
35644;SDS011;21764;52.042;6.830;2023-04-01T15:54:06;7.97;;;5.43;;
35644;SDS011;21764;52.042;6.830;2023-04-01T15:59:39;6.45;;;5.22;;
35644;SDS011;21764;52.042;6.830;2023-04-01T16:20:51;4.28;;;3.88;;
35644;SDS011;21764;52.042;6.830;2023-04-01T16:37:17;3.60;;;3.30;;
35644;SDS011;21764;52.042;6.830;2023-04-01T16:42:24;3.70;;;3.38;;
35644;SDS011;21764;52.042;6.830;2023-04-01T16:47:46;3.17;;;2.75;;
35644;SDS011;21764;52.042;6.830;2023-04-01T16:52:58;3.30;;;3.00;;
35644;SDS011;21764;52.042;6.830;2023-04-01T16:58:11;2.70;;;2.50;;
35644;SDS011;21764;52.042;6.830;2023-04-01T17:03:30;2.50;;;2.30;;
35644;SDS011;21764;52.042;6.830;2023-04-01T17:08:46;2.58;;;2.38;;
35644;SDS011;21764;52.042;6.830;2023-04-01T17:15:04;3.13;;;2.83;;
35644;SDS011;21764;52.042;6.830;2023-04-01T17:20:12;3.05;;;2.75;;
35644;SDS011;21764;52.042;6.830;2023-04-01T17:35:58;3.78;;;3.35;;
35644;SDS011;21764;52.042;6.830;2023-04-01T17:56:55;3.00;;;2.50;;
35644;SDS011;21764;52.042;6.830;2023-04-01T18:07:31;2.55;;;2.10;;
35644;SDS011;21764;52.042;6.830;2023-04-01T18:18:37;2.75;;;2.53;;
35644;SDS011;21764;52.042;6.830;2023-04-01T18:24:00;2.35;;;2.10;;
35644;SDS011;21764;52.042;6.830;2023-04-01T18:39:33;3.33;;;2.70;;
35644;SDS011;21764;52.042;6.830;2023-04-01T19:01:16;2.88;;;2.58;;
35644;SDS011;21764;52.042;6.830;2023-04-01T19:05:55;2.10;;;1.90;;
35644;SDS011;21764;52.042;6.830;2023-04-01T19:11:07;2.80;;;2.22;;
35644;SDS011;21764;52.042;6.830;2023-04-01T19:21:34;5.38;;;2.35;;
35644;SDS011;21764;52.042;6.830;2023-04-01T19:26:40;2.58;;;2.38;;
35644;SDS011;21764;52.042;6.830;2023-04-01T19:42:54;2.70;;;2.50;;
35644;SDS011;21764;52.042;6.830;2023-04-01T19:53:46;2.55;;;2.35;;
35644;SDS011;21764;52.042;6.830;2023-04-01T19:59:14;2.97;;;2.78;;
35644;SDS011;21764;52.042;6.830;2023-04-01T20:04:34;2.55;;;2.35;;
35644;SDS011;21764;52.042;6.830;2023-04-01T20:10:07;2.53;;;2.33;;
35644;SDS011;21764;52.042;6.830;2023-04-01T20:20:32;3.47;;;2.83;;
35644;SDS011;21764;52.042;6.830;2023-04-01T20:25:40;6.00;;;2.92;;
35644;SDS011;21764;52.042;6.830;2023-04-01T20:31:00;3.33;;;3.03;;
35644;SDS011;21764;52.042;6.830;2023-04-01T20:36:23;3.60;;;3.30;;
35644;SDS011;21764;52.042;6.830;2023-04-01T21:40:24;4.97;;;4.47;;
35644;SDS011;21764;52.042;6.830;2023-04-01T21:50:44;4.50;;;3.80;;
35644;SDS011;21764;52.042;6.830;2023-04-01T21:56:28;4.57;;;2.97;;
35644;SDS011;21764;52.042;6.830;2023-04-01T22:13:10;5.57;;;4.70;;
35644;SDS011;21764;52.042;6.830;2023-04-01T22:18:20;6.88;;;4.53;;
35644;SDS011;21764;52.042;6.830;2023-04-01T22:50:50;7.97;;;5.95;;
35644;SDS011;21764;52.042;6.830;2023-04-01T22:56:17;9.07;;;7.18;;
35644;SDS011;21764;52.042;6.830;2023-04-01T23:01:24;10.05;;;7.50;;
35644;SDS011;21764;52.042;6.830;2023-04-01T23:06:35;11.77;;;8.02;;
35644;SDS011;21764;52.042;6.830;2023-04-01T23:22:32;11.23;;;6.25;;
35644;SDS011;21764;52.042;6.830;2023-04-01T23:32:53;14.48;;;8.45;;
35644;SDS011;21764;52.042;6.830;2023-04-01T23:38:15;11.30;;;7.60;;
35644;SDS011;21764;52.042;6.830;2023-04-01T23:43:24;11.63;;;6.25;;
35644;SDS011;21764;52.042;6.830;2023-04-01T23:48:29;9.85;;;5.25;;
35644;SDS011;21764;52.042;6.830;2023-04-01T23:54:24;5.63;;;4.82;;
35644;SDS011;21764;52.042;6.830;2023-04-01T23:59:31;7.05;;;5.07;;
